createdAt,value
2019-03-16T00:01:32.883Z,2.62
2019-03-16T00:04:03.295Z,2.27
2019-03-16T00:06:33.649Z,2.47
2019-03-16T00:09:05.899Z,1.90
2019-03-16T00:11:36.290Z,2.22
2019-03-16T00:14:06.624Z,1.90
2019-03-16T00:16:36.974Z,2.47
2019-03-16T00:19:07.359Z,2.77
2019-03-16T00:21:37.698Z,2.20
2019-03-16T00:24:08.073Z,2.22
2019-03-16T00:26:38.427Z,2.05
2019-03-16T00:29:08.798Z,2.30
2019-03-16T00:31:39.183Z,2.00
2019-03-16T00:34:09.523Z,2.42
2019-03-16T00:36:39.869Z,2.47
2019-03-16T00:39:10.246Z,2.20
2019-03-16T00:41:40.596Z,2.37
2019-03-16T00:44:10.970Z,2.65
2019-03-16T00:46:41.322Z,2.55
2019-03-16T00:49:11.697Z,2.75
2019-03-16T00:51:42.092Z,2.20
2019-03-16T00:54:12.474Z,2.67
2019-03-16T00:56:43.884Z,2.35
2019-03-16T00:59:14.252Z,2.80
2019-03-16T01:01:44.607Z,2.10
2019-03-16T01:04:14.974Z,2.42
2019-03-16T01:06:45.327Z,2.42
2019-03-16T01:09:15.714Z,3.20
2019-03-16T01:11:46.070Z,2.92
2019-03-16T01:14:16.437Z,2.65
2019-03-16T01:16:46.786Z,2.50
2019-03-16T01:19:17.161Z,3.35
2019-03-16T01:21:47.513Z,2.92
2019-03-16T01:24:17.957Z,3.37
2019-03-16T01:26:48.303Z,2.75
2019-03-16T01:29:18.678Z,2.27
2019-03-16T01:31:49.055Z,2.47
2019-03-16T01:34:19.482Z,2.50
2019-03-16T01:36:49.851Z,2.98
2019-03-16T01:39:20.209Z,3.00
2019-03-16T01:41:50.578Z,2.72
2019-03-16T01:44:20.967Z,2.85
2019-03-16T01:46:51.309Z,2.22
2019-03-16T01:49:21.660Z,2.80
2019-03-16T01:51:52.031Z,2.87
2019-03-16T01:54:22.379Z,2.40
2019-03-16T01:57:04.765Z,2.80
2019-03-16T01:59:35.108Z,2.15
2019-03-16T02:02:05.486Z,2.50
2019-03-16T02:04:35.828Z,2.65
2019-03-16T02:07:06.202Z,3.62
2019-03-16T02:09:36.556Z,2.55
2019-03-16T02:12:06.937Z,2.25
2019-03-16T02:14:37.292Z,2.90
2019-03-16T02:17:07.661Z,2.95
2019-03-16T02:19:38.017Z,2.90
2019-03-16T02:22:08.385Z,3.20
2019-03-16T02:24:38.740Z,2.85
2019-03-16T02:27:09.118Z,3.02
2019-03-16T02:29:39.461Z,2.47
2019-03-16T02:32:09.838Z,2.47
2019-03-16T02:34:40.193Z,2.90
2019-03-16T02:37:10.572Z,2.45
2019-03-16T02:39:40.917Z,2.50
2019-03-16T02:42:11.291Z,2.45
2019-03-16T02:44:41.634Z,2.72
2019-03-16T02:47:12.013Z,2.90
2019-03-16T02:49:42.358Z,3.80
2019-03-16T02:52:12.731Z,2.50
2019-03-16T02:54:43.070Z,2.33
2019-03-16T02:57:13.449Z,3.47
2019-03-16T02:59:43.817Z,3.47
2019-03-16T03:02:14.190Z,2.70
2019-03-16T03:04:46.297Z,2.37
2019-03-16T03:07:16.606Z,3.60
2019-03-16T03:09:46.960Z,2.40
2019-03-16T03:12:17.449Z,3.50
2019-03-16T03:14:47.818Z,3.42
2019-03-16T03:17:18.192Z,2.77
2019-03-16T03:19:48.540Z,2.98
2019-03-16T03:22:18.918Z,3.33
2019-03-16T03:24:49.268Z,4.17
2019-03-16T03:27:19.658Z,2.92
2019-03-16T03:29:49.999Z,3.10
2019-03-16T03:32:20.368Z,2.70
2019-03-16T03:34:50.725Z,3.85
2019-03-16T03:37:21.106Z,2.75
2019-03-16T03:39:51.524Z,2.92
2019-03-16T03:42:22.868Z,3.25
2019-03-16T03:44:53.224Z,2.95
2019-03-16T03:47:23.599Z,3.70
2019-03-16T03:49:54.125Z,2.92
2019-03-16T03:52:24.445Z,2.92
2019-03-16T03:54:54.784Z,3.02
2019-03-16T03:57:25.158Z,2.70
2019-03-16T03:59:55.506Z,2.95
2019-03-16T04:02:26.051Z,4.00
2019-03-16T04:04:56.410Z,2.60
2019-03-16T04:07:26.795Z,2.80
2019-03-16T04:09:57.150Z,2.27
2019-03-16T04:12:27.530Z,2.98
2019-03-16T04:14:57.887Z,3.15
2019-03-16T04:17:28.268Z,3.27
2019-03-16T04:19:58.618Z,3.40
2019-03-16T04:22:29.003Z,3.20
2019-03-16T04:24:59.354Z,2.75
2019-03-16T04:27:29.725Z,3.05
2019-03-16T04:30:00.079Z,2.55
2019-03-16T04:32:30.450Z,2.65
2019-03-16T04:35:00.801Z,2.37
2019-03-16T04:37:31.182Z,2.58
2019-03-16T04:40:01.524Z,3.17
2019-03-16T04:42:31.900Z,2.72
2019-03-16T04:45:02.251Z,2.52
2019-03-16T04:47:33.701Z,2.75
2019-03-16T04:50:05.890Z,2.60
2019-03-16T04:52:36.356Z,3.00
2019-03-16T04:55:08.605Z,3.10
2019-03-16T04:57:38.973Z,3.10
2019-03-16T05:00:14.350Z,2.80
2019-03-16T05:02:44.729Z,2.50
2019-03-16T05:05:15.078Z,2.75
2019-03-16T05:07:45.501Z,3.25
2019-03-16T05:10:15.808Z,3.17
2019-03-16T05:12:46.178Z,3.27
2019-03-16T05:15:16.601Z,2.75
2019-03-16T05:17:46.982Z,2.60
2019-03-16T05:20:17.333Z,2.70
2019-03-16T05:22:47.785Z,3.45
2019-03-16T05:25:18.131Z,2.30
2019-03-16T05:27:48.507Z,2.60
2019-03-16T05:30:18.963Z,3.58
2019-03-16T05:32:49.346Z,3.02
2019-03-16T05:35:19.700Z,2.92
2019-03-16T05:37:50.074Z,2.55
2019-03-16T05:40:20.436Z,4.40
2019-03-16T05:42:50.811Z,3.12
2019-03-16T05:45:22.132Z,3.20
2019-03-16T05:47:52.506Z,2.52
2019-03-16T05:50:22.859Z,3.35
2019-03-16T05:52:53.311Z,3.37
2019-03-16T05:55:23.665Z,3.20
2019-03-16T05:57:54.104Z,3.10
2019-03-16T06:00:24.458Z,2.40
2019-03-16T06:02:54.830Z,3.05
2019-03-16T06:05:25.195Z,2.58
2019-03-16T06:07:55.567Z,3.83
2019-03-16T06:10:25.941Z,2.30
2019-03-16T06:12:56.298Z,2.65
2019-03-16T06:15:26.672Z,3.33
2019-03-16T06:17:57.028Z,3.08
2019-03-16T06:20:27.473Z,2.83
2019-03-16T06:22:57.842Z,3.42
2019-03-16T06:25:28.234Z,2.67
2019-03-16T06:28:01.810Z,3.27
2019-03-16T06:30:32.162Z,3.22
2019-03-16T06:33:03.122Z,3.08
2019-03-16T06:35:33.472Z,3.05
2019-03-16T06:38:03.827Z,3.20
2019-03-16T06:40:34.210Z,3.83
2019-03-16T06:43:07.740Z,2.75
2019-03-16T06:45:50.347Z,2.52
2019-03-16T06:48:20.708Z,2.87
2019-03-16T06:50:51.094Z,2.90
2019-03-16T06:53:21.614Z,3.15
2019-03-16T06:55:52.064Z,3.65
2019-03-16T06:58:22.567Z,4.40
2019-03-16T07:00:52.955Z,3.08
2019-03-16T07:03:23.318Z,2.85
2019-03-16T07:05:53.708Z,3.25
2019-03-16T07:08:24.070Z,2.42
2019-03-16T07:10:54.526Z,3.90
2019-03-16T07:13:25.265Z,3.17
2019-03-16T07:15:55.646Z,3.20
2019-03-16T07:18:26.002Z,2.60
2019-03-16T07:20:56.379Z,3.20
2019-03-16T07:23:26.998Z,3.02
2019-03-16T07:25:57.526Z,3.15
2019-03-16T07:28:27.891Z,2.50
2019-03-16T07:30:58.284Z,3.37
2019-03-16T07:33:28.656Z,4.20
2019-03-16T07:35:59.032Z,4.67
2019-03-16T07:38:29.385Z,3.42
2019-03-16T07:40:59.770Z,3.05
2019-03-16T07:43:30.187Z,2.30
2019-03-16T07:46:01.656Z,3.10
2019-03-16T07:48:32.020Z,2.60
2019-03-16T07:51:02.409Z,2.55
2019-03-16T07:53:52.125Z,2.70
2019-03-16T07:56:22.513Z,2.58
2019-03-16T07:58:52.891Z,2.72
2019-03-16T08:01:23.283Z,3.02
2019-03-16T08:03:53.664Z,2.80
2019-03-16T08:06:24.060Z,2.42
2019-03-16T08:08:54.528Z,3.10
2019-03-16T08:11:24.923Z,2.95
2019-03-16T08:13:55.288Z,2.77
2019-03-16T08:16:25.680Z,2.42
2019-03-16T08:18:56.964Z,3.00
2019-03-16T08:21:28.317Z,2.90
2019-03-16T08:23:58.705Z,2.33
2019-03-16T08:26:29.090Z,3.35
2019-03-16T08:28:59.561Z,3.08
2019-03-16T08:31:29.942Z,2.72
2019-03-16T08:34:00.328Z,2.62
2019-03-16T08:36:30.723Z,3.30
2019-03-16T08:39:01.101Z,2.62
2019-03-16T08:41:32.913Z,2.65
2019-03-16T08:44:03.362Z,2.62
2019-03-16T08:46:38.817Z,2.62
2019-03-16T08:49:10.161Z,2.20
2019-03-16T08:51:40.554Z,3.33
2019-03-16T08:54:10.954Z,2.52
2019-03-16T08:56:41.345Z,2.60
2019-03-16T08:59:11.721Z,2.47
2019-03-16T09:01:42.110Z,2.58
2019-03-16T09:04:12.489Z,2.22
2019-03-16T09:06:42.872Z,2.75
2019-03-16T09:09:13.242Z,3.10
2019-03-16T09:11:43.646Z,2.85
2019-03-16T09:14:14.097Z,2.85
2019-03-16T09:16:44.547Z,3.02
2019-03-16T09:19:15.880Z,3.35
2019-03-16T09:21:46.263Z,3.05
2019-03-16T09:24:16.622Z,3.22
2019-03-16T09:26:47.016Z,2.92
2019-03-16T09:29:17.395Z,2.98
2019-03-16T09:31:47.846Z,3.40
2019-03-16T09:34:18.203Z,2.58
2019-03-16T09:36:48.601Z,3.20
2019-03-16T09:39:19.153Z,2.52
2019-03-16T09:41:49.529Z,2.80
2019-03-16T09:44:19.964Z,2.92
2019-03-16T09:46:50.349Z,2.60
2019-03-16T09:49:40.059Z,2.17
2019-03-16T09:52:10.458Z,2.92
2019-03-16T09:54:40.879Z,2.87
2019-03-16T09:57:11.267Z,2.25
2019-03-16T09:59:41.632Z,2.50
2019-03-16T10:02:12.027Z,2.47
2019-03-16T10:04:42.395Z,2.45
2019-03-16T10:07:12.790Z,2.98
2019-03-16T10:09:43.211Z,1.92
2019-03-16T10:12:13.580Z,2.62
2019-03-16T10:14:43.950Z,2.17
2019-03-16T10:17:14.410Z,2.15
2019-03-16T10:19:45.833Z,2.33
2019-03-16T10:22:16.273Z,2.08
2019-03-16T10:24:46.636Z,3.10
2019-03-16T10:27:17.158Z,1.95
2019-03-16T10:29:48.539Z,2.30
2019-03-16T10:32:18.997Z,2.27
2019-03-16T10:34:49.449Z,2.40
2019-03-16T10:37:19.829Z,2.33
2019-03-16T10:40:11.858Z,2.60
2019-03-16T10:42:42.307Z,2.75
2019-03-16T10:45:13.299Z,2.20
2019-03-16T10:47:43.692Z,3.87
2019-03-16T10:50:15.202Z,2.47
2019-03-16T10:52:45.683Z,2.40
2019-03-16T10:55:16.288Z,2.12
2019-03-16T10:57:46.753Z,1.82
2019-03-16T11:00:38.749Z,1.95
2019-03-16T11:03:09.216Z,2.15
2019-03-16T11:05:39.551Z,1.95
2019-03-16T11:08:09.939Z,1.85
2019-03-16T11:10:40.302Z,1.45
2019-03-16T11:13:10.749Z,1.25
2019-03-16T11:15:44.012Z,1.25
2019-03-16T11:18:14.404Z,1.40
2019-03-16T11:20:44.835Z,1.40
2019-03-16T11:23:15.366Z,1.62
2019-03-16T11:25:45.873Z,1.40
2019-03-16T11:28:16.262Z,1.57
2019-03-16T11:30:46.621Z,1.40
2019-03-16T11:33:17.012Z,1.50
2019-03-16T11:35:47.632Z,1.67
2019-03-16T11:38:18.012Z,1.52
2019-03-16T11:40:48.362Z,1.57
2019-03-16T11:43:18.819Z,2.05
2019-03-16T11:45:49.221Z,1.67
2019-03-16T11:48:19.685Z,1.62
2019-03-16T11:50:50.095Z,1.90
2019-03-16T11:53:20.467Z,2.05
2019-03-16T11:55:50.815Z,1.75
2019-03-16T11:58:21.193Z,2.15
2019-03-16T12:00:51.644Z,1.72
2019-03-16T12:03:22.083Z,1.62
2019-03-16T12:05:52.563Z,2.08
2019-03-16T12:08:23.046Z,1.47
2019-03-16T12:10:53.605Z,1.87
2019-03-16T12:13:23.995Z,1.67
2019-03-16T12:15:54.345Z,2.12
2019-03-16T12:18:24.727Z,1.80
2019-03-16T12:20:55.077Z,1.65
2019-03-16T12:23:25.543Z,2.10
2019-03-16T12:25:58.529Z,1.90
2019-03-16T12:28:28.905Z,2.17
2019-03-16T12:30:59.295Z,2.30
2019-03-16T12:33:29.780Z,2.10
2019-03-16T12:36:00.315Z,2.20
2019-03-16T12:38:30.695Z,1.92
2019-03-16T12:41:01.052Z,2.30
2019-03-16T12:43:31.690Z,2.25
2019-03-16T12:46:02.145Z,2.52
2019-03-16T12:48:32.590Z,2.70
2019-03-16T12:51:03.179Z,2.77
2019-03-16T12:53:33.569Z,2.83
2019-03-16T12:56:03.977Z,2.80
2019-03-16T12:58:34.413Z,2.27
2019-03-16T13:01:04.765Z,2.12
2019-03-16T13:03:35.158Z,3.35
2019-03-16T13:06:05.616Z,2.30
2019-03-16T13:08:35.988Z,1.80
2019-03-16T13:11:06.429Z,1.27
2019-03-16T13:13:37.259Z,1.47
2019-03-16T13:16:07.772Z,1.90
2019-03-16T13:18:38.212Z,1.30
2019-03-16T13:21:08.563Z,2.02
2019-03-16T13:23:38.942Z,1.32
2019-03-16T13:26:09.405Z,1.22
2019-03-16T13:28:39.933Z,1.10
2019-03-16T13:31:10.427Z,1.47
2019-03-16T13:33:40.786Z,1.52
2019-03-16T13:36:11.157Z,1.35
2019-03-16T13:38:41.532Z,1.60
2019-03-16T13:41:12.042Z,1.80
2019-03-16T13:43:42.376Z,1.10
2019-03-16T13:46:12.789Z,1.10
2019-03-16T13:48:43.145Z,1.10
2019-03-16T13:51:13.547Z,1.22
2019-03-16T13:53:43.895Z,0.65
2019-03-16T13:56:14.274Z,0.98
2019-03-16T13:58:44.853Z,1.02
2019-03-16T14:01:15.606Z,1.37
2019-03-16T14:03:45.949Z,1.40
2019-03-16T14:06:35.976Z,1.45
2019-03-16T14:09:07.947Z,1.32
2019-03-16T14:11:41.132Z,1.98
2019-03-16T14:14:10.425Z,1.50
2019-03-16T14:16:40.802Z,2.20
2019-03-16T14:19:11.238Z,2.00
2019-03-16T14:21:42.154Z,1.62
2019-03-16T14:24:12.525Z,1.60
2019-03-16T14:26:42.898Z,2.12
2019-03-16T14:29:13.252Z,2.00
2019-03-16T14:31:43.628Z,2.10
2019-03-16T14:34:14.068Z,2.20
2019-03-16T14:36:44.464Z,2.27
2019-03-16T14:39:15.002Z,2.42
2019-03-16T14:41:45.360Z,2.20
2019-03-16T14:44:15.706Z,2.15
2019-03-16T14:46:46.085Z,2.47
2019-03-16T14:49:16.573Z,2.33
2019-03-16T14:51:46.931Z,2.67
2019-03-16T14:54:17.342Z,2.70
2019-03-16T14:56:47.694Z,2.80
2019-03-16T14:59:18.125Z,2.52
2019-03-16T15:01:48.488Z,2.20
2019-03-16T15:04:18.891Z,2.80
2019-03-16T15:06:49.268Z,2.65
2019-03-16T15:09:19.622Z,2.67
2019-03-16T15:11:50.000Z,2.80
2019-03-16T15:14:21.760Z,3.02
2019-03-16T15:16:52.414Z,2.70
2019-03-16T15:19:22.780Z,2.70
2019-03-16T15:21:53.291Z,2.45
2019-03-16T15:24:23.622Z,2.20
2019-03-16T15:26:54.175Z,2.70
2019-03-16T15:29:24.509Z,3.00
2019-03-16T15:31:54.892Z,2.70
2019-03-16T15:34:25.385Z,3.20
2019-03-16T15:36:55.713Z,2.70
2019-03-16T15:39:26.067Z,3.30
2019-03-16T15:41:56.439Z,3.10
2019-03-16T15:44:26.932Z,3.60
2019-03-16T15:46:57.334Z,3.47
2019-03-16T15:49:27.664Z,3.50
2019-03-16T15:51:58.061Z,3.80
2019-03-16T15:54:28.609Z,3.62
2019-03-16T15:56:59.010Z,3.60
2019-03-16T15:59:29.407Z,3.62
2019-03-16T16:01:59.810Z,3.20
2019-03-16T16:04:30.422Z,3.98
2019-03-16T16:07:00.830Z,4.00
2019-03-16T16:09:31.724Z,3.60
2019-03-16T16:12:02.155Z,3.98
2019-03-16T16:14:32.534Z,4.25
2019-03-16T16:17:04.866Z,4.80
2019-03-16T16:19:35.115Z,4.67
2019-03-16T16:22:05.483Z,4.72
2019-03-16T16:24:35.941Z,4.83
2019-03-16T16:27:06.306Z,4.85
2019-03-16T16:29:36.744Z,4.92
2019-03-16T16:32:07.108Z,5.20
2019-03-16T16:34:37.552Z,5.40
2019-03-16T16:37:07.936Z,10.80
2019-03-16T16:39:38.354Z,6.97
2019-03-16T16:42:08.882Z,6.70
2019-03-16T16:44:39.297Z,6.47
2019-03-16T16:47:09.705Z,6.40
2019-03-16T16:49:40.075Z,8.27
2019-03-16T16:52:10.472Z,7.65
2019-03-16T16:54:40.850Z,8.13
2019-03-16T16:57:11.285Z,7.62
2019-03-16T16:59:41.675Z,8.23
2019-03-16T17:02:12.171Z,8.98
2019-03-16T17:04:42.534Z,8.38
2019-03-16T17:07:12.974Z,9.08
2019-03-16T17:09:43.388Z,10.23
2019-03-16T17:12:13.803Z,10.08
2019-03-16T17:14:44.213Z,10.38
2019-03-16T17:17:14.622Z,11.22
2019-03-16T17:19:45.212Z,11.65
2019-03-16T17:22:15.604Z,11.45
2019-03-16T17:24:46.137Z,11.65
2019-03-16T17:27:16.564Z,12.95
2019-03-16T17:29:46.946Z,12.53
2019-03-16T17:32:17.334Z,13.75
2019-03-16T17:34:47.705Z,14.47
2019-03-16T17:37:18.117Z,15.25
2019-03-16T17:39:48.505Z,15.85
2019-03-16T17:42:18.927Z,15.63
2019-03-16T17:44:50.991Z,14.80
2019-03-16T17:47:21.657Z,15.88
2019-03-16T17:49:52.081Z,17.90
2019-03-16T17:52:22.478Z,16.80
2019-03-16T17:54:52.918Z,18.57
2019-03-16T17:57:23.301Z,18.85
2019-03-16T17:59:53.764Z,18.48
2019-03-16T18:02:24.211Z,19.30
2019-03-16T18:04:54.643Z,20.30
2019-03-16T18:07:25.039Z,20.80
2019-03-16T18:09:55.488Z,21.30
2019-03-16T18:12:25.901Z,21.52
2019-03-16T18:14:56.307Z,20.12
2019-03-16T18:17:26.700Z,20.72
2019-03-16T18:19:57.063Z,19.70
2019-03-16T18:22:27.459Z,21.07
2019-03-16T18:24:57.833Z,20.27
2019-03-16T18:27:28.354Z,19.85
2019-03-16T18:29:58.714Z,20.43
2019-03-16T18:32:29.070Z,20.37
2019-03-16T18:34:59.501Z,20.92
2019-03-16T18:37:29.922Z,21.75
2019-03-16T18:40:00.491Z,21.37
2019-03-16T18:42:30.847Z,21.25
2019-03-16T18:45:01.266Z,21.60
2019-03-16T18:47:31.669Z,21.12
2019-03-16T18:50:02.085Z,21.20
2019-03-16T18:52:32.553Z,21.80
2019-03-16T18:55:03.062Z,21.40
2019-03-16T18:57:33.424Z,21.45
2019-03-16T19:00:06.567Z,22.02
2019-03-16T19:02:37.053Z,21.90
2019-03-16T19:05:09.600Z,22.40
2019-03-16T19:07:39.978Z,23.73
2019-03-16T19:10:17.564Z,22.87
2019-03-16T19:12:47.945Z,20.82
2019-03-16T19:15:39.735Z,19.75
2019-03-16T19:18:10.213Z,19.35
2019-03-16T19:20:40.667Z,17.85
2019-03-16T19:23:11.210Z,16.12
2019-03-16T19:25:41.763Z,16.62
2019-03-16T19:28:12.155Z,16.32
2019-03-16T19:30:42.605Z,16.35
2019-03-16T19:33:15.150Z,15.13
2019-03-16T19:35:45.546Z,14.50
2019-03-16T19:38:15.907Z,14.55
2019-03-16T19:40:46.357Z,15.00
2019-03-16T19:43:16.725Z,13.40
2019-03-16T19:45:47.156Z,13.40
2019-03-16T19:48:18.630Z,13.13
2019-03-16T19:50:49.080Z,13.28
2019-03-16T19:53:19.501Z,12.18
2019-03-16T19:55:49.941Z,12.68
2019-03-16T19:58:20.305Z,13.65
2019-03-16T20:00:50.738Z,13.48
2019-03-16T20:03:21.303Z,12.85
2019-03-16T20:05:51.844Z,12.95
2019-03-16T20:08:22.265Z,13.38
2019-03-16T20:11:05.494Z,12.78
2019-03-16T20:13:24.892Z,12.43
2019-03-16T20:15:55.312Z,12.75
2019-03-16T20:18:25.710Z,12.37
2019-03-16T20:20:56.424Z,13.05
2019-03-16T20:23:26.801Z,13.13
2019-03-16T20:25:57.244Z,13.08
2019-03-16T20:28:27.625Z,12.73
2019-03-16T20:30:58.239Z,12.43
2019-03-16T20:33:28.619Z,13.58
2019-03-16T20:35:58.995Z,12.85
2019-03-16T20:38:29.399Z,12.45
2019-03-16T20:40:59.764Z,12.18
2019-03-16T20:43:30.196Z,12.03
2019-03-16T20:46:00.563Z,12.20
2019-03-16T20:48:31.936Z,11.22
2019-03-16T20:51:02.395Z,13.77
2019-03-16T20:53:32.793Z,12.78
2019-03-16T20:56:15.455Z,10.15
2019-03-16T20:58:45.812Z,10.00
2019-03-16T21:01:16.287Z,9.18
2019-03-16T21:03:47.054Z,8.65
2019-03-16T21:06:18.456Z,8.23
2019-03-16T21:09:02.602Z,7.67
2019-03-16T21:11:24.376Z,6.83
2019-03-16T21:13:54.804Z,7.53
2019-03-16T21:16:25.257Z,6.22
2019-03-16T21:18:55.862Z,6.42
2019-03-16T21:21:26.264Z,6.10
2019-03-16T21:23:56.676Z,5.65
2019-03-16T21:26:27.110Z,4.78
2019-03-16T21:28:57.750Z,4.90
2019-03-16T21:31:28.278Z,5.03
2019-03-16T21:33:58.678Z,5.47
2019-03-16T21:36:41.043Z,4.40
2019-03-16T21:39:01.483Z,4.05
2019-03-16T21:41:33.476Z,4.40
2019-03-16T21:44:03.811Z,4.10
2019-03-16T21:46:34.241Z,3.72
2019-03-16T21:49:05.800Z,3.62
2019-03-16T21:51:36.175Z,3.90
2019-03-16T21:54:07.551Z,3.50
2019-03-16T21:56:37.937Z,3.33
2019-03-16T21:59:08.393Z,4.20
2019-03-16T22:01:39.124Z,3.47
2019-03-16T22:04:11.342Z,3.80
2019-03-16T22:06:41.766Z,3.55
2019-03-16T22:09:12.158Z,3.70
2019-03-16T22:11:42.576Z,3.70
2019-03-16T22:14:12.952Z,3.17
2019-03-16T22:16:43.348Z,3.05
2019-03-16T22:19:13.737Z,3.30
2019-03-16T22:21:44.149Z,3.02
2019-03-16T22:24:14.575Z,3.47
2019-03-16T22:26:44.976Z,3.45
2019-03-16T22:29:15.404Z,3.02
2019-03-16T22:31:45.801Z,2.90
2019-03-16T22:34:16.204Z,3.00
2019-03-16T22:36:46.634Z,2.90
2019-03-16T22:39:17.663Z,2.90
2019-03-16T22:41:48.279Z,3.12
2019-03-16T22:44:19.193Z,2.87
2019-03-16T22:46:50.075Z,2.72
2019-03-16T22:49:21.009Z,2.98
2019-03-16T22:51:51.841Z,3.35
2019-03-16T22:54:22.910Z,3.33
2019-03-16T22:56:53.654Z,2.70
2019-03-16T22:59:24.567Z,2.67
2019-03-16T23:01:55.512Z,2.80
2019-03-16T23:04:26.223Z,3.15
2019-03-16T23:06:57.180Z,3.08
2019-03-16T23:09:28.017Z,3.08
2019-03-16T23:12:00.189Z,3.02
2019-03-16T23:14:31.306Z,3.50
2019-03-16T23:17:01.853Z,3.33
2019-03-16T23:19:32.554Z,3.87
2019-03-16T23:22:02.914Z,3.27
2019-03-16T23:24:33.272Z,3.47
2019-03-16T23:27:03.748Z,3.60
2019-03-16T23:29:34.180Z,3.08
2019-03-16T23:32:04.592Z,3.30
2019-03-16T23:34:35.031Z,3.40
2019-03-16T23:37:05.643Z,3.22
2019-03-16T23:39:37.127Z,3.67
2019-03-16T23:42:07.522Z,3.75
2019-03-16T23:44:37.941Z,3.20
2019-03-16T23:47:08.322Z,3.25
2019-03-16T23:49:38.747Z,3.67
2019-03-16T23:52:09.110Z,3.50
2019-03-16T23:54:39.516Z,3.65
2019-03-16T23:57:09.982Z,4.15
2019-03-16T23:59:40.403Z,3.77
